sensor_id;sensor_type;location;lat;lon;timestamp;temperature;humidity
22639;DHT22;11486;52.366;20.780;2022-07-05T00:02:01;16.20;99.90
22639;DHT22;11486;52.366;20.780;2022-07-05T00:04:29;16.20;99.90
22639;DHT22;11486;52.366;20.780;2022-07-05T00:06:56;16.10;99.90
22639;DHT22;11486;52.366;20.780;2022-07-05T00:09:41;16.10;99.90
22639;DHT22;11486;52.366;20.780;2022-07-05T00:12:09;16.00;99.90
22639;DHT22;11486;52.366;20.780;2022-07-05T00:14:39;15.90;99.90
22639;DHT22;11486;52.366;20.780;2022-07-05T00:17:07;15.90;99.90
22639;DHT22;11486;52.366;20.780;2022-07-05T00:19:34;15.90;99.90
22639;DHT22;11486;52.366;20.780;2022-07-05T00:22:02;15.90;99.90
22639;DHT22;11486;52.366;20.780;2022-07-05T00:24:30;15.90;99.90
22639;DHT22;11486;52.366;20.780;2022-07-05T00:26:57;15.90;99.90
22639;DHT22;11486;52.366;20.780;2022-07-05T00:29:26;16.00;99.90
22639;DHT22;11486;52.366;20.780;2022-07-05T00:31:54;15.90;99.90
22639;DHT22;11486;52.366;20.780;2022-07-05T00:34:21;15.90;99.90
22639;DHT22;11486;52.366;20.780;2022-07-05T00:36:49;15.90;99.90
22639;DHT22;11486;52.366;20.780;2022-07-05T00:39:16;15.80;99.90
22639;DHT22;11486;52.366;20.780;2022-07-05T00:41:44;15.90;99.90
22639;DHT22;11486;52.366;20.780;2022-07-05T00:44:12;15.90;99.90
22639;DHT22;11486;52.366;20.780;2022-07-05T00:46:42;15.80;99.90
22639;DHT22;11486;52.366;20.780;2022-07-05T00:49:10;15.70;99.90
22639;DHT22;11486;52.366;20.780;2022-07-05T00:51:38;15.70;99.90
22639;DHT22;11486;52.366;20.780;2022-07-05T00:54:07;15.70;99.90
22639;DHT22;11486;52.366;20.780;2022-07-05T00:56:34;15.70;99.90
22639;DHT22;11486;52.366;20.780;2022-07-05T00:59:02;15.70;99.90
22639;DHT22;11486;52.366;20.780;2022-07-05T01:01:29;15.70;99.90
22639;DHT22;11486;52.366;20.780;2022-07-05T01:03:57;15.70;99.90
22639;DHT22;11486;52.366;20.780;2022-07-05T01:06:25;15.80;99.90
22639;DHT22;11486;52.366;20.780;2022-07-05T01:08:53;15.80;99.90
22639;DHT22;11486;52.366;20.780;2022-07-05T01:11:21;15.80;99.90
22639;DHT22;11486;52.366;20.780;2022-07-05T01:13:48;15.70;99.90
22639;DHT22;11486;52.366;20.780;2022-07-05T01:16:16;15.70;99.90
22639;DHT22;11486;52.366;20.780;2022-07-05T01:18:44;15.70;99.90
22639;DHT22;11486;52.366;20.780;2022-07-05T01:21:13;15.70;99.90
22639;DHT22;11486;52.366;20.780;2022-07-05T01:23:45;15.70;99.90
22639;DHT22;11486;52.366;20.780;2022-07-05T01:26:13;15.80;99.90
22639;DHT22;11486;52.366;20.780;2022-07-05T01:28:40;15.80;99.90
22639;DHT22;11486;52.366;20.780;2022-07-05T01:31:08;15.80;99.90
22639;DHT22;11486;52.366;20.780;2022-07-05T01:33:35;15.80;99.90
22639;DHT22;11486;52.366;20.780;2022-07-05T01:36:04;15.90;99.90
22639;DHT22;11486;52.366;20.780;2022-07-05T01:38:31;15.90;99.90
22639;DHT22;11486;52.366;20.780;2022-07-05T01:40:59;15.90;99.90
22639;DHT22;11486;52.366;20.780;2022-07-05T01:43:26;16.00;99.90
22639;DHT22;11486;52.366;20.780;2022-07-05T01:45:55;16.00;99.90
22639;DHT22;11486;52.366;20.780;2022-07-05T01:48:23;16.00;99.90
22639;DHT22;11486;52.366;20.780;2022-07-05T01:50:54;16.00;99.90
22639;DHT22;11486;52.366;20.780;2022-07-05T01:53:27;16.10;99.90
22639;DHT22;11486;52.366;20.780;2022-07-05T01:56:01;16.10;99.90
22639;DHT22;11486;52.366;20.780;2022-07-05T01:58:30;16.10;99.90
22639;DHT22;11486;52.366;20.780;2022-07-05T02:00:57;16.20;99.90
22639;DHT22;11486;52.366;20.780;2022-07-05T02:03:29;16.20;99.90
22639;DHT22;11486;52.366;20.780;2022-07-05T02:05:56;16.30;99.90
22639;DHT22;11486;52.366;20.780;2022-07-05T02:08:28;16.30;99.90
22639;DHT22;11486;52.366;20.780;2022-07-05T02:10:57;16.30;99.90
22639;DHT22;11486;52.366;20.780;2022-07-05T02:13:24;16.50;99.90
22639;DHT22;11486;52.366;20.780;2022-07-05T02:15:52;16.40;99.90
22639;DHT22;11486;52.366;20.780;2022-07-05T02:18:19;16.40;99.90
22639;DHT22;11486;52.366;20.780;2022-07-05T02:20:47;16.30;99.90
22639;DHT22;11486;52.366;20.780;2022-07-05T02:23:15;16.40;99.90
22639;DHT22;11486;52.366;20.780;2022-07-05T02:25:42;16.40;99.90
22639;DHT22;11486;52.366;20.780;2022-07-05T02:28:10;16.30;99.90
22639;DHT22;11486;52.366;20.780;2022-07-05T02:30:37;16.30;99.90
22639;DHT22;11486;52.366;20.780;2022-07-05T02:33:05;16.30;99.90
22639;DHT22;11486;52.366;20.780;2022-07-05T02:35:32;16.20;99.90
22639;DHT22;11486;52.366;20.780;2022-07-05T02:38:00;16.20;99.90
22639;DHT22;11486;52.366;20.780;2022-07-05T02:40:27;16.20;99.90
22639;DHT22;11486;52.366;20.780;2022-07-05T02:42:55;16.20;99.90
22639;DHT22;11486;52.366;20.780;2022-07-05T02:45:24;16.20;99.90
22639;DHT22;11486;52.366;20.780;2022-07-05T02:47:51;16.30;99.90
22639;DHT22;11486;52.366;20.780;2022-07-05T02:50:19;16.30;99.90
22639;DHT22;11486;52.366;20.780;2022-07-05T02:52:46;16.40;99.90
22639;DHT22;11486;52.366;20.780;2022-07-05T02:55:14;16.40;99.90
22639;DHT22;11486;52.366;20.780;2022-07-05T02:57:41;16.50;99.90
22639;DHT22;11486;52.366;20.780;2022-07-05T03:00:10;16.50;99.90
22639;DHT22;11486;52.366;20.780;2022-07-05T03:02:38;16.60;99.90
22639;DHT22;11486;52.366;20.780;2022-07-05T03:05:05;16.70;99.90
22639;DHT22;11486;52.366;20.780;2022-07-05T03:07:33;16.80;99.90
22639;DHT22;11486;52.366;20.780;2022-07-05T03:10:00;16.90;99.90
22639;DHT22;11486;52.366;20.780;2022-07-05T03:12:28;17.00;99.90
22639;DHT22;11486;52.366;20.780;2022-07-05T03:14:56;17.10;99.90
22639;DHT22;11486;52.366;20.780;2022-07-05T03:17:23;17.10;99.90
22639;DHT22;11486;52.366;20.780;2022-07-05T03:19:51;17.10;99.90
22639;DHT22;11486;52.366;20.780;2022-07-05T03:22:18;17.10;99.90
22639;DHT22;11486;52.366;20.780;2022-07-05T03:24:46;17.10;99.90
22639;DHT22;11486;52.366;20.780;2022-07-05T03:27:13;17.20;99.90
22639;DHT22;11486;52.366;20.780;2022-07-05T03:29:41;17.20;99.90
22639;DHT22;11486;52.366;20.780;2022-07-05T03:32:08;17.30;99.90
22639;DHT22;11486;52.366;20.780;2022-07-05T03:34:36;17.30;99.90
22639;DHT22;11486;52.366;20.780;2022-07-05T03:37:05;17.30;99.90
22639;DHT22;11486;52.366;20.780;2022-07-05T03:39:32;17.30;99.90
22639;DHT22;11486;52.366;20.780;2022-07-05T03:42:03;17.40;99.90
22639;DHT22;11486;52.366;20.780;2022-07-05T03:44:30;17.40;99.90
22639;DHT22;11486;52.366;20.780;2022-07-05T03:46:59;17.50;99.90
22639;DHT22;11486;52.366;20.780;2022-07-05T03:49:27;17.60;99.90
22639;DHT22;11486;52.366;20.780;2022-07-05T03:51:55;17.60;99.90
22639;DHT22;11486;52.366;20.780;2022-07-05T03:54:22;17.70;99.90
22639;DHT22;11486;52.366;20.780;2022-07-05T03:56:50;17.70;99.90
22639;DHT22;11486;52.366;20.780;2022-07-05T03:59:17;17.90;99.90
22639;DHT22;11486;52.366;20.780;2022-07-05T04:01:45;18.00;99.90
22639;DHT22;11486;52.366;20.780;2022-07-05T04:04:12;18.10;99.90
22639;DHT22;11486;52.366;20.780;2022-07-05T04:06:40;18.20;99.90
22639;DHT22;11486;52.366;20.780;2022-07-05T04:09:08;18.30;99.90
22639;DHT22;11486;52.366;20.780;2022-07-05T04:11:35;18.30;99.90
22639;DHT22;11486;52.366;20.780;2022-07-05T04:14:03;18.40;99.90
22639;DHT22;11486;52.366;20.780;2022-07-05T04:16:31;18.40;99.90
22639;DHT22;11486;52.366;20.780;2022-07-05T04:18:58;18.40;99.90
22639;DHT22;11486;52.366;20.780;2022-07-05T04:21:26;18.50;99.90
22639;DHT22;11486;52.366;20.780;2022-07-05T04:23:53;18.40;99.90
22639;DHT22;11486;52.366;20.780;2022-07-05T04:26:21;18.40;99.90
22639;DHT22;11486;52.366;20.780;2022-07-05T04:28:49;18.40;99.90
22639;DHT22;11486;52.366;20.780;2022-07-05T04:31:16;18.50;99.90
22639;DHT22;11486;52.366;20.780;2022-07-05T04:33:44;18.50;99.90
22639;DHT22;11486;52.366;20.780;2022-07-05T04:36:11;18.60;99.90
22639;DHT22;11486;52.366;20.780;2022-07-05T04:38:39;18.70;99.90
22639;DHT22;11486;52.366;20.780;2022-07-05T04:41:06;18.80;99.90
22639;DHT22;11486;52.366;20.780;2022-07-05T04:43:34;18.90;99.90
22639;DHT22;11486;52.366;20.780;2022-07-05T04:46:01;18.90;99.90
22639;DHT22;11486;52.366;20.780;2022-07-05T04:48:29;19.00;99.90
22639;DHT22;11486;52.366;20.780;2022-07-05T04:50:56;19.10;99.90
22639;DHT22;11486;52.366;20.780;2022-07-05T04:53:24;19.10;99.90
22639;DHT22;11486;52.366;20.780;2022-07-05T04:55:52;19.10;99.90
22639;DHT22;11486;52.366;20.780;2022-07-05T04:58:19;19.10;99.90
22639;DHT22;11486;52.366;20.780;2022-07-05T05:00:47;19.20;99.90
22639;DHT22;11486;52.366;20.780;2022-07-05T05:03:14;19.20;99.90
22639;DHT22;11486;52.366;20.780;2022-07-05T05:05:42;19.40;99.90
22639;DHT22;11486;52.366;20.780;2022-07-05T05:08:10;19.50;99.90
22639;DHT22;11486;52.366;20.780;2022-07-05T05:10:37;19.50;99.90
22639;DHT22;11486;52.366;20.780;2022-07-05T05:13:05;19.50;99.90
22639;DHT22;11486;52.366;20.780;2022-07-05T05:15:32;19.40;99.90
22639;DHT22;11486;52.366;20.780;2022-07-05T05:18:00;19.50;99.90
22639;DHT22;11486;52.366;20.780;2022-07-05T05:20:28;19.50;99.90
22639;DHT22;11486;52.366;20.780;2022-07-05T05:22:56;19.50;99.90
22639;DHT22;11486;52.366;20.780;2022-07-05T05:25:24;19.50;99.90
22639;DHT22;11486;52.366;20.780;2022-07-05T05:27:53;19.60;99.90
22639;DHT22;11486;52.366;20.780;2022-07-05T05:30:21;19.70;99.90
22639;DHT22;11486;52.366;20.780;2022-07-05T05:32:48;19.90;99.90
22639;DHT22;11486;52.366;20.780;2022-07-05T05:35:16;20.00;99.90
22639;DHT22;11486;52.366;20.780;2022-07-05T05:37:54;20.10;99.90
22639;DHT22;11486;52.366;20.780;2022-07-05T05:40:19;20.20;99.90
22639;DHT22;11486;52.366;20.780;2022-07-05T05:42:47;20.40;99.90
22639;DHT22;11486;52.366;20.780;2022-07-05T05:45:16;20.50;99.90
22639;DHT22;11486;52.366;20.780;2022-07-05T05:47:58;20.50;99.90
22639;DHT22;11486;52.366;20.780;2022-07-05T05:50:31;20.40;99.90
22639;DHT22;11486;52.366;20.780;2022-07-05T05:52:59;20.40;99.90
22639;DHT22;11486;52.366;20.780;2022-07-05T05:55:28;20.30;99.90
22639;DHT22;11486;52.366;20.780;2022-07-05T05:57:57;20.10;99.90
22639;DHT22;11486;52.366;20.780;2022-07-05T06:00:27;20.10;99.90
22639;DHT22;11486;52.366;20.780;2022-07-05T06:02:55;20.20;99.90
22639;DHT22;11486;52.366;20.780;2022-07-05T06:05:22;20.20;99.90
22639;DHT22;11486;52.366;20.780;2022-07-05T06:07:55;20.30;99.90
22639;DHT22;11486;52.366;20.780;2022-07-05T06:10:24;20.30;99.90
22639;DHT22;11486;52.366;20.780;2022-07-05T06:12:53;20.50;99.90
22639;DHT22;11486;52.366;20.780;2022-07-05T06:15:21;20.50;99.90
22639;DHT22;11486;52.366;20.780;2022-07-05T06:17:49;20.80;99.90
22639;DHT22;11486;52.366;20.780;2022-07-05T06:20:24;20.90;99.90
22639;DHT22;11486;52.366;20.780;2022-07-05T06:22:47;21.10;99.90
22639;DHT22;11486;52.366;20.780;2022-07-05T06:25:16;21.30;99.90
22639;DHT22;11486;52.366;20.780;2022-07-05T06:27:45;21.40;99.90
22639;DHT22;11486;52.366;20.780;2022-07-05T06:30:15;21.40;99.90
22639;DHT22;11486;52.366;20.780;2022-07-05T06:32:45;21.50;99.90
22639;DHT22;11486;52.366;20.780;2022-07-05T06:35:14;21.70;98.70
22639;DHT22;11486;52.366;20.780;2022-07-05T06:37:48;21.80;99.00
22639;DHT22;11486;52.366;20.780;2022-07-05T06:40:14;22.00;98.10
22639;DHT22;11486;52.366;20.780;2022-07-05T06:42:42;22.30;97.80
22639;DHT22;11486;52.366;20.780;2022-07-05T06:45:10;22.60;97.00
22639;DHT22;11486;52.366;20.780;2022-07-05T06:47:38;22.80;96.40
22639;DHT22;11486;52.366;20.780;2022-07-05T06:50:06;23.10;94.20
22639;DHT22;11486;52.366;20.780;2022-07-05T06:52:34;23.20;95.10
22639;DHT22;11486;52.366;20.780;2022-07-05T06:55:02;23.40;94.50
22639;DHT22;11486;52.366;20.780;2022-07-05T06:57:30;23.50;91.70
22639;DHT22;11486;52.366;20.780;2022-07-05T06:59:59;23.50;91.50
22639;DHT22;11486;52.366;20.780;2022-07-05T07:02:26;23.50;92.00
22639;DHT22;11486;52.366;20.780;2022-07-05T07:04:53;23.30;91.50
22639;DHT22;11486;52.366;20.780;2022-07-05T07:07:21;23.20;90.30
22639;DHT22;11486;52.366;20.780;2022-07-05T07:10:07;23.30;90.70
22639;DHT22;11486;52.366;20.780;2022-07-05T07:12:34;23.30;91.50
22639;DHT22;11486;52.366;20.780;2022-07-05T07:15:02;23.60;90.80
22639;DHT22;11486;52.366;20.780;2022-07-05T07:17:30;23.90;90.00
22639;DHT22;11486;52.366;20.780;2022-07-05T07:19:57;24.10;90.40
22639;DHT22;11486;52.366;20.780;2022-07-05T07:22:25;24.30;88.10
22639;DHT22;11486;52.366;20.780;2022-07-05T07:24:53;24.40;88.70
22639;DHT22;11486;52.366;20.780;2022-07-05T07:27:21;24.50;85.40
22639;DHT22;11486;52.366;20.780;2022-07-05T07:29:48;24.50;88.10
22639;DHT22;11486;52.366;20.780;2022-07-05T07:32:16;24.50;85.30
22639;DHT22;11486;52.366;20.780;2022-07-05T07:34:45;24.40;86.30
22639;DHT22;11486;52.366;20.780;2022-07-05T07:37:12;24.60;86.90
22639;DHT22;11486;52.366;20.780;2022-07-05T07:39:41;24.70;87.20
22639;DHT22;11486;52.366;20.780;2022-07-05T07:42:08;24.80;84.80
22639;DHT22;11486;52.366;20.780;2022-07-05T07:44:36;24.70;84.90
22639;DHT22;11486;52.366;20.780;2022-07-05T07:47:04;24.80;84.20
22639;DHT22;11486;52.366;20.780;2022-07-05T07:49:31;25.00;84.90
22639;DHT22;11486;52.366;20.780;2022-07-05T07:51:59;25.10;84.30
22639;DHT22;11486;52.366;20.780;2022-07-05T07:54:26;25.40;86.20
22639;DHT22;11486;52.366;20.780;2022-07-05T07:56:54;25.60;82.30
22639;DHT22;11486;52.366;20.780;2022-07-05T07:59:22;25.80;80.20
22639;DHT22;11486;52.366;20.780;2022-07-05T08:01:49;26.00;80.30
22639;DHT22;11486;52.366;20.780;2022-07-05T08:04:17;26.10;81.20
22639;DHT22;11486;52.366;20.780;2022-07-05T08:06:45;26.10;80.10
22639;DHT22;11486;52.366;20.780;2022-07-05T08:09:12;26.20;80.90
22639;DHT22;11486;52.366;20.780;2022-07-05T08:11:40;26.20;79.80
22639;DHT22;11486;52.366;20.780;2022-07-05T08:14:08;26.50;78.10
22639;DHT22;11486;52.366;20.780;2022-07-05T08:16:35;26.70;79.90
22639;DHT22;11486;52.366;20.780;2022-07-05T08:19:03;26.80;78.20
22639;DHT22;11486;52.366;20.780;2022-07-05T08:21:48;27.00;77.00
22639;DHT22;11486;52.366;20.780;2022-07-05T08:24:16;27.20;75.00
22639;DHT22;11486;52.366;20.780;2022-07-05T08:26:43;27.20;75.00
22639;DHT22;11486;52.366;20.780;2022-07-05T08:29:13;27.40;74.90
22639;DHT22;11486;52.366;20.780;2022-07-05T08:31:43;27.80;73.30
22639;DHT22;11486;52.366;20.780;2022-07-05T08:34:12;28.50;73.20
22639;DHT22;11486;52.366;20.780;2022-07-05T08:36:40;29.40;70.90
22639;DHT22;11486;52.366;20.780;2022-07-05T08:39:09;30.30;67.10
22639;DHT22;11486;52.366;20.780;2022-07-05T08:41:36;31.50;64.60
22639;DHT22;11486;52.366;20.780;2022-07-05T08:44:04;32.40;60.60
22639;DHT22;11486;52.366;20.780;2022-07-05T08:46:33;33.40;59.50
22639;DHT22;11486;52.366;20.780;2022-07-05T08:49:02;34.50;54.70
22639;DHT22;11486;52.366;20.780;2022-07-05T08:51:36;34.60;53.30
22639;DHT22;11486;52.366;20.780;2022-07-05T08:54:05;35.00;53.00
22639;DHT22;11486;52.366;20.780;2022-07-05T08:56:34;35.40;52.20
22639;DHT22;11486;52.366;20.780;2022-07-05T08:59:03;36.10;49.30
22639;DHT22;11486;52.366;20.780;2022-07-05T09:01:31;36.80;48.90
22639;DHT22;11486;52.366;20.780;2022-07-05T09:04:03;37.50;49.00
22639;DHT22;11486;52.366;20.780;2022-07-05T09:06:32;37.90;47.30
22639;DHT22;11486;52.366;20.780;2022-07-05T09:09:00;38.50;45.90
22639;DHT22;11486;52.366;20.780;2022-07-05T09:11:36;39.30;45.60
22639;DHT22;11486;52.366;20.780;2022-07-05T09:14:06;39.50;43.90
22639;DHT22;11486;52.366;20.780;2022-07-05T09:16:34;39.80;41.50
22639;DHT22;11486;52.366;20.780;2022-07-05T09:19:08;40.00;41.60
22639;DHT22;11486;52.366;20.780;2022-07-05T09:21:35;40.40;41.30
22639;DHT22;11486;52.366;20.780;2022-07-05T09:24:05;41.20;40.70
22639;DHT22;11486;52.366;20.780;2022-07-05T09:26:44;41.70;38.50
22639;DHT22;11486;52.366;20.780;2022-07-05T09:29:14;41.60;38.90
22639;DHT22;11486;52.366;20.780;2022-07-05T09:31:44;41.40;37.60
22639;DHT22;11486;52.366;20.780;2022-07-05T09:34:16;41.70;38.20
22639;DHT22;11486;52.366;20.780;2022-07-05T09:37:01;42.10;38.90
22639;DHT22;11486;52.366;20.780;2022-07-05T09:42:21;42.50;36.80
22639;DHT22;11486;52.366;20.780;2022-07-05T09:44:56;42.60;36.20
22639;DHT22;11486;52.366;20.780;2022-07-05T09:47:28;43.10;36.70
22639;DHT22;11486;52.366;20.780;2022-07-05T09:49:57;43.50;36.30
22639;DHT22;11486;52.366;20.780;2022-07-05T09:52:40;43.90;35.10
22639;DHT22;11486;52.366;20.780;2022-07-05T09:55:17;44.40;34.70
22639;DHT22;11486;52.366;20.780;2022-07-05T09:57:47;44.40;34.60
22639;DHT22;11486;52.366;20.780;2022-07-05T10:00:19;44.40;34.80
22639;DHT22;11486;52.366;20.780;2022-07-05T10:05:19;44.80;33.50
22639;DHT22;11486;52.366;20.780;2022-07-05T10:07:49;45.40;33.60
22639;DHT22;11486;52.366;20.780;2022-07-05T10:10:24;45.60;33.50
22639;DHT22;11486;52.366;20.780;2022-07-05T10:12:54;44.70;31.90
22639;DHT22;11486;52.366;20.780;2022-07-05T10:15:26;43.70;33.70
22639;DHT22;11486;52.366;20.780;2022-07-05T10:18:05;42.00;36.50
22639;DHT22;11486;52.366;20.780;2022-07-05T10:20:44;40.60;38.00
22639;DHT22;11486;52.366;20.780;2022-07-05T10:23:14;39.30;40.60
22639;DHT22;11486;52.366;20.780;2022-07-05T10:25:44;38.60;40.30
22639;DHT22;11486;52.366;20.780;2022-07-05T10:28:14;38.40;42.40
22639;DHT22;11486;52.366;20.780;2022-07-05T10:30:44;38.60;41.50
22639;DHT22;11486;52.366;20.780;2022-07-05T10:33:13;38.50;41.50
22639;DHT22;11486;52.366;20.780;2022-07-05T10:35:44;37.90;42.20
22639;DHT22;11486;52.366;20.780;2022-07-05T10:38:12;37.00;45.30
22639;DHT22;11486;52.366;20.780;2022-07-05T10:40:42;36.00;46.80
22639;DHT22;11486;52.366;20.780;2022-07-05T10:43:13;35.00;48.70
22639;DHT22;11486;52.366;20.780;2022-07-05T10:45:50;34.30;48.80
22639;DHT22;11486;52.366;20.780;2022-07-05T10:48:17;33.60;50.30
22639;DHT22;11486;52.366;20.780;2022-07-05T10:50:56;33.00;51.40
22639;DHT22;11486;52.366;20.780;2022-07-05T10:58:42;31.90;54.70
22639;DHT22;11486;52.366;20.780;2022-07-05T11:09:13;31.00;55.90
22639;DHT22;11486;52.366;20.780;2022-07-05T11:11:43;30.90;56.90
22639;DHT22;11486;52.366;20.780;2022-07-05T11:17:13;30.60;56.50
22639;DHT22;11486;52.366;20.780;2022-07-05T11:20:06;30.50;58.20
22639;DHT22;11486;52.366;20.780;2022-07-05T11:22:35;30.40;57.50
22639;DHT22;11486;52.366;20.780;2022-07-05T11:25:04;30.50;57.30
22639;DHT22;11486;52.366;20.780;2022-07-05T11:27:33;30.20;58.10
22639;DHT22;11486;52.366;20.780;2022-07-05T11:30:02;30.20;57.90
22639;DHT22;11486;52.366;20.780;2022-07-05T11:35:15;30.10;57.50
22639;DHT22;11486;52.366;20.780;2022-07-05T11:38:02;30.20;61.80
22639;DHT22;11486;52.366;20.780;2022-07-05T11:40:31;30.20;58.90
22639;DHT22;11486;52.366;20.780;2022-07-05T11:42:59;30.20;59.20
22639;DHT22;11486;52.366;20.780;2022-07-05T11:45:28;30.20;59.10
22639;DHT22;11486;52.366;20.780;2022-07-05T11:47:56;30.10;58.80
22639;DHT22;11486;52.366;20.780;2022-07-05T11:50:32;30.00;57.80
22639;DHT22;11486;52.366;20.780;2022-07-05T11:53:01;30.10;59.30
22639;DHT22;11486;52.366;20.780;2022-07-05T11:55:30;30.10;58.30
22639;DHT22;11486;52.366;20.780;2022-07-05T11:57:58;30.20;58.10
22639;DHT22;11486;52.366;20.780;2022-07-05T12:00:27;30.20;60.60
22639;DHT22;11486;52.366;20.780;2022-07-05T12:02:55;30.10;59.50
22639;DHT22;11486;52.366;20.780;2022-07-05T12:05:23;30.00;59.40
22639;DHT22;11486;52.366;20.780;2022-07-05T12:07:52;29.90;61.50
22639;DHT22;11486;52.366;20.780;2022-07-05T12:10:20;29.70;62.20
22639;DHT22;11486;52.366;20.780;2022-07-05T12:13:09;29.60;62.00
22639;DHT22;11486;52.366;20.780;2022-07-05T12:15:38;29.40;60.50
22639;DHT22;11486;52.366;20.780;2022-07-05T12:18:07;29.30;61.80
22639;DHT22;11486;52.366;20.780;2022-07-05T12:20:37;29.10;62.50
22639;DHT22;11486;52.366;20.780;2022-07-05T12:23:06;28.80;61.70
22639;DHT22;11486;52.366;20.780;2022-07-05T12:25:34;28.60;60.60
22639;DHT22;11486;52.366;20.780;2022-07-05T12:28:04;28.40;61.20
22639;DHT22;11486;52.366;20.780;2022-07-05T12:30:33;28.20;62.20
22639;DHT22;11486;52.366;20.780;2022-07-05T12:33:08;28.10;63.40
22639;DHT22;11486;52.366;20.780;2022-07-05T12:35:45;28.00;63.00
22639;DHT22;11486;52.366;20.780;2022-07-05T12:38:15;28.00;63.00
22639;DHT22;11486;52.366;20.780;2022-07-05T12:40:47;28.00;66.10
22639;DHT22;11486;52.366;20.780;2022-07-05T12:43:17;27.90;64.10
22639;DHT22;11486;52.366;20.780;2022-07-05T12:46:02;27.80;65.60
22639;DHT22;11486;52.366;20.780;2022-07-05T12:48:37;28.00;63.50
22639;DHT22;11486;52.366;20.780;2022-07-05T12:51:07;28.00;64.60
22639;DHT22;11486;52.366;20.780;2022-07-05T12:53:43;27.90;59.90
22639;DHT22;11486;52.366;20.780;2022-07-05T12:56:25;27.80;62.30
22639;DHT22;11486;52.366;20.780;2022-07-05T12:59:10;27.80;61.40
22639;DHT22;11486;52.366;20.780;2022-07-05T13:01:42;27.80;63.10
22639;DHT22;11486;52.366;20.780;2022-07-05T13:04:12;27.70;62.80
22639;DHT22;11486;52.366;20.780;2022-07-05T13:09:32;27.70;64.40
22639;DHT22;11486;52.366;20.780;2022-07-05T13:14:48;27.30;63.50
22639;DHT22;11486;52.366;20.780;2022-07-05T13:17:18;27.20;64.50
22639;DHT22;11486;52.366;20.780;2022-07-05T13:19:48;27.00;63.90
22639;DHT22;11486;52.366;20.780;2022-07-05T13:22:16;26.80;64.40
22639;DHT22;11486;52.366;20.780;2022-07-05T13:24:44;26.60;64.00
22639;DHT22;11486;52.366;20.780;2022-07-05T13:27:12;26.40;64.90
22639;DHT22;11486;52.366;20.780;2022-07-05T13:29:40;26.20;63.50
22639;DHT22;11486;52.366;20.780;2022-07-05T13:32:08;25.90;65.90
22639;DHT22;11486;52.366;20.780;2022-07-05T13:34:35;25.70;66.40
22639;DHT22;11486;52.366;20.780;2022-07-05T13:37:03;25.50;67.10
22639;DHT22;11486;52.366;20.780;2022-07-05T13:39:31;25.30;68.20
22639;DHT22;11486;52.366;20.780;2022-07-05T13:41:58;25.20;68.50
22639;DHT22;11486;52.366;20.780;2022-07-05T13:44:26;25.10;68.20
22639;DHT22;11486;52.366;20.780;2022-07-05T13:46:54;25.00;67.80
22639;DHT22;11486;52.366;20.780;2022-07-05T13:49:21;24.80;68.30
22639;DHT22;11486;52.366;20.780;2022-07-05T13:51:49;24.80;69.10
22639;DHT22;11486;52.366;20.780;2022-07-05T13:54:17;24.70;70.20
22639;DHT22;11486;52.366;20.780;2022-07-05T13:56:44;24.60;71.60
22639;DHT22;11486;52.366;20.780;2022-07-05T13:59:12;24.50;70.10
22639;DHT22;11486;52.366;20.780;2022-07-05T14:01:39;24.40;71.20
22639;DHT22;11486;52.366;20.780;2022-07-05T14:04:07;24.30;71.20
22639;DHT22;11486;52.366;20.780;2022-07-05T14:06:34;24.10;70.60
22639;DHT22;11486;52.366;20.780;2022-07-05T14:09:04;24.10;72.90
22639;DHT22;11486;52.366;20.780;2022-07-05T14:11:31;24.00;72.00
22639;DHT22;11486;52.366;20.780;2022-07-05T14:13:59;24.00;73.60
22639;DHT22;11486;52.366;20.780;2022-07-05T14:16:26;23.80;75.90
22639;DHT22;11486;52.366;20.780;2022-07-05T14:18:54;23.60;76.50
22639;DHT22;11486;52.366;20.780;2022-07-05T14:21:22;23.50;75.80
22639;DHT22;11486;52.366;20.780;2022-07-05T14:23:50;23.30;78.20
22639;DHT22;11486;52.366;20.780;2022-07-05T14:26:17;23.10;80.30
22639;DHT22;11486;52.366;20.780;2022-07-05T14:28:45;22.90;81.80
22639;DHT22;11486;52.366;20.780;2022-07-05T14:31:12;22.70;84.40
22639;DHT22;11486;52.366;20.780;2022-07-05T14:33:40;22.60;85.70
22639;DHT22;11486;52.366;20.780;2022-07-05T14:36:08;22.40;88.00
22639;DHT22;11486;52.366;20.780;2022-07-05T14:38:35;22.00;88.30
22639;DHT22;11486;52.366;20.780;2022-07-05T14:41:03;21.80;90.90
22639;DHT22;11486;52.366;20.780;2022-07-05T14:43:30;21.60;91.80
22639;DHT22;11486;52.366;20.780;2022-07-05T14:45:58;21.40;93.60
22639;DHT22;11486;52.366;20.780;2022-07-05T14:48:26;21.30;93.00
22639;DHT22;11486;52.366;20.780;2022-07-05T15:46:18;19.40;99.90
22639;DHT22;11486;52.366;20.780;2022-07-05T15:48:46;19.20;99.90
22639;DHT22;11486;52.366;20.780;2022-07-05T15:51:16;19.10;99.90
22639;DHT22;11486;52.366;20.780;2022-07-05T15:53:44;19.10;99.90
22639;DHT22;11486;52.366;20.780;2022-07-05T15:56:12;19.10;99.90
22639;DHT22;11486;52.366;20.780;2022-07-05T15:58:39;19.10;99.90
22639;DHT22;11486;52.366;20.780;2022-07-05T16:01:08;19.10;99.90
22639;DHT22;11486;52.366;20.780;2022-07-05T16:03:36;19.20;99.90
22639;DHT22;11486;52.366;20.780;2022-07-05T16:06:04;19.10;99.90
22639;DHT22;11486;52.366;20.780;2022-07-05T16:08:31;19.00;99.90
22639;DHT22;11486;52.366;20.780;2022-07-05T16:10:59;19.10;99.90
22639;DHT22;11486;52.366;20.780;2022-07-05T16:13:28;19.00;99.90
22639;DHT22;11486;52.366;20.780;2022-07-05T16:15:57;19.00;99.90
22639;DHT22;11486;52.366;20.780;2022-07-05T16:18:46;19.00;99.90
22639;DHT22;11486;52.366;20.780;2022-07-05T16:21:11;18.90;99.90
22639;DHT22;11486;52.366;20.780;2022-07-05T16:23:41;18.90;99.90
22639;DHT22;11486;52.366;20.780;2022-07-05T16:26:10;18.90;99.90
22639;DHT22;11486;52.366;20.780;2022-07-05T16:28:38;18.90;99.90
22639;DHT22;11486;52.366;20.780;2022-07-05T16:31:07;19.00;99.90
22639;DHT22;11486;52.366;20.780;2022-07-05T16:33:37;18.90;99.90
22639;DHT22;11486;52.366;20.780;2022-07-05T16:36:10;19.00;99.90
22639;DHT22;11486;52.366;20.780;2022-07-05T16:38:39;19.00;99.90
22639;DHT22;11486;52.366;20.780;2022-07-05T16:41:08;19.00;99.90
22639;DHT22;11486;52.366;20.780;2022-07-05T16:43:36;19.00;99.90
22639;DHT22;11486;52.366;20.780;2022-07-05T16:46:05;18.90;99.90
22639;DHT22;11486;52.366;20.780;2022-07-05T16:48:41;18.90;99.90
22639;DHT22;11486;52.366;20.780;2022-07-05T16:51:10;18.90;99.90
22639;DHT22;11486;52.366;20.780;2022-07-05T16:53:38;19.10;99.90